createdAt,value
2019-03-03T00:01:32.092Z,6.20
2019-03-03T00:04:02.348Z,6.30
2019-03-03T00:06:32.635Z,6.50
2019-03-03T00:09:02.994Z,7.10
2019-03-03T00:11:34.708Z,7.70
2019-03-03T00:14:04.957Z,8.10
2019-03-03T00:16:35.256Z,8.30
2019-03-03T00:19:05.521Z,8.20
2019-03-03T00:21:35.896Z,7.80
2019-03-03T00:24:06.151Z,7.30
2019-03-03T00:26:36.326Z,6.90
2019-03-03T00:29:06.585Z,6.80
2019-03-03T00:31:38.589Z,6.70
2019-03-03T00:34:08.869Z,6.60
2019-03-03T00:36:58.913Z,6.50
2019-03-03T00:39:36.704Z,6.60
2019-03-03T00:42:17.480Z,7.00
2019-03-03T00:44:55.379Z,7.40
2019-03-03T00:47:29.931Z,7.30
2019-03-03T00:50:01.749Z,7.30
2019-03-03T00:52:36.557Z,7.20
2019-03-03T00:55:14.882Z,7.20
2019-03-03T00:57:46.635Z,6.90
2019-03-03T01:00:30.155Z,6.60
2019-03-03T01:03:07.689Z,6.40
2019-03-03T01:05:48.169Z,6.20
2019-03-03T01:08:19.965Z,5.90
2019-03-03T01:10:57.792Z,5.60
2019-03-03T01:13:44.832Z,5.80
2019-03-03T01:16:19.607Z,5.80
2019-03-03T01:18:54.149Z,5.80
2019-03-03T01:21:25.983Z,5.70
2019-03-03T01:23:57.762Z,5.60
2019-03-03T01:26:28.017Z,5.60
2019-03-03T01:28:58.193Z,5.70
2019-03-03T01:31:28.480Z,5.80
2019-03-03T01:33:58.771Z,5.50
2019-03-03T01:36:29.113Z,5.60
2019-03-03T01:38:59.303Z,5.60
2019-03-03T01:41:29.541Z,5.80
2019-03-03T01:43:59.731Z,5.80
2019-03-03T01:46:30.597Z,5.60
2019-03-03T01:49:01.980Z,5.60
2019-03-03T01:51:32.215Z,5.70
2019-03-03T01:54:02.409Z,5.70
2019-03-03T01:56:32.657Z,5.50
2019-03-03T01:59:02.857Z,5.50
2019-03-03T02:01:33.705Z,5.40
2019-03-03T02:04:03.980Z,5.50
2019-03-03T02:06:34.213Z,5.70
2019-03-03T02:09:06.856Z,5.40
2019-03-03T02:11:37.428Z,5.10
2019-03-03T02:14:07.731Z,5.10
2019-03-03T02:16:37.985Z,5.10
2019-03-03T02:19:08.162Z,5.20
2019-03-03T02:21:38.391Z,5.60
2019-03-03T02:24:08.585Z,6.00
2019-03-03T02:26:38.843Z,6.00
2019-03-03T02:29:09.066Z,5.60
2019-03-03T02:31:39.299Z,5.30
2019-03-03T02:34:09.480Z,5.10
2019-03-03T02:36:39.724Z,4.90
2019-03-03T02:39:14.939Z,4.80
2019-03-03T02:41:45.307Z,4.80
2019-03-03T02:44:16.697Z,4.80
2019-03-03T02:46:46.977Z,4.60
2019-03-03T02:49:17.174Z,4.60
2019-03-03T02:51:47.444Z,4.60
2019-03-03T02:54:17.621Z,4.70
2019-03-03T02:56:47.885Z,4.70
2019-03-03T02:59:18.070Z,4.70
2019-03-03T03:01:49.924Z,4.70
2019-03-03T03:04:20.118Z,4.80
2019-03-03T03:06:52.003Z,4.60
2019-03-03T03:09:26.847Z,4.40
2019-03-03T03:12:01.798Z,4.40
2019-03-03T03:14:33.614Z,4.50
2019-03-03T03:17:14.490Z,4.60
2019-03-03T03:19:52.215Z,4.80
2019-03-03T03:22:40.536Z,4.70
2019-03-03T03:25:24.294Z,4.60
2019-03-03T03:28:07.837Z,4.40
2019-03-03T03:30:39.588Z,4.40
2019-03-03T03:33:11.408Z,4.40
2019-03-03T03:35:43.152Z,4.40
2019-03-03T03:38:17.701Z,4.40
2019-03-03T03:40:49.451Z,4.40
2019-03-03T03:43:30.098Z,4.30
2019-03-03T03:46:19.921Z,4.20
2019-03-03T03:48:53.330Z,4.30
2019-03-03T03:51:40.414Z,4.20
2019-03-03T03:54:18.165Z,4.30
2019-03-03T03:56:49.927Z,4.50
2019-03-03T03:59:24.483Z,4.70
2019-03-03T04:01:56.258Z,4.90
2019-03-03T04:04:28.079Z,5.00
2019-03-03T04:07:05.738Z,4.80
2019-03-03T04:09:37.558Z,4.90
2019-03-03T04:12:18.613Z,4.90
2019-03-03T04:14:53.439Z,5.00
2019-03-03T04:17:25.251Z,5.10
2019-03-03T04:20:00.367Z,5.20
2019-03-03T04:22:35.527Z,5.20
2019-03-03T04:25:10.446Z,5.40
2019-03-03T04:27:42.201Z,5.30
2019-03-03T04:30:14.005Z,5.20
2019-03-03T04:32:52.003Z,5.20
2019-03-03T04:35:26.674Z,5.00
2019-03-03T04:37:58.431Z,5.00
2019-03-03T04:40:39.163Z,5.00
2019-03-03T04:43:17.150Z,4.90
2019-03-03T04:45:54.633Z,4.50
2019-03-03T04:48:30.441Z,4.40
2019-03-03T04:51:05.389Z,4.50
2019-03-03T04:53:40.034Z,4.70
2019-03-03T04:56:30.189Z,4.70
2019-03-03T04:59:07.981Z,4.60
2019-03-03T05:01:51.932Z,4.50
2019-03-03T05:04:23.903Z,4.40
2019-03-03T05:07:07.629Z,4.50
2019-03-03T05:09:42.104Z,4.30
2019-03-03T05:12:34.358Z,4.30
2019-03-03T05:15:20.670Z,4.10
2019-03-03T05:17:52.486Z,4.30
2019-03-03T05:20:22.694Z,4.20
2019-03-03T05:22:52.973Z,3.90
2019-03-03T05:25:23.252Z,3.90
2019-03-03T05:27:53.438Z,4.20
2019-03-03T05:30:23.608Z,4.10
2019-03-03T05:32:53.866Z,4.10
2019-03-03T05:35:24.051Z,4.10
2019-03-03T05:37:54.291Z,4.00
2019-03-03T05:40:24.600Z,4.00
2019-03-03T05:42:54.899Z,3.90
2019-03-03T05:45:25.128Z,3.90
2019-03-03T05:47:55.390Z,4.00
2019-03-03T05:50:25.574Z,4.10
2019-03-03T05:52:55.885Z,4.20
2019-03-03T05:55:26.135Z,4.00
2019-03-03T05:57:56.392Z,4.00
2019-03-03T06:00:26.580Z,4.10
2019-03-03T06:02:56.867Z,3.90
2019-03-03T06:05:27.048Z,3.90
2019-03-03T06:07:57.309Z,3.80
2019-03-03T06:10:27.542Z,3.70
2019-03-03T06:12:57.803Z,3.70
2019-03-03T06:15:28.029Z,3.80
2019-03-03T06:17:58.281Z,4.20
2019-03-03T06:20:28.538Z,4.40
2019-03-03T06:22:58.773Z,4.50
2019-03-03T06:25:29.018Z,4.40
2019-03-03T06:27:59.253Z,4.30
2019-03-03T06:30:29.578Z,4.20
2019-03-03T06:32:59.884Z,4.30
2019-03-03T06:35:31.229Z,4.40
2019-03-03T06:38:01.471Z,4.40
2019-03-03T06:40:31.743Z,4.40
2019-03-03T06:43:02.045Z,4.50
2019-03-03T06:45:32.294Z,4.60
2019-03-03T06:48:02.534Z,4.80
2019-03-03T06:50:32.781Z,5.20
2019-03-03T06:53:03.037Z,5.60
2019-03-03T06:55:33.261Z,5.90
2019-03-03T06:58:03.620Z,5.90
2019-03-03T07:00:33.856Z,5.90
2019-03-03T07:03:04.152Z,5.90
2019-03-03T07:05:34.496Z,6.20
2019-03-03T07:08:04.741Z,6.70
2019-03-03T07:10:35.039Z,6.60
2019-03-03T07:13:05.294Z,6.70
2019-03-03T07:15:35.574Z,7.00
2019-03-03T07:18:05.824Z,7.30
2019-03-03T07:20:36.057Z,7.60
2019-03-03T07:23:06.305Z,7.90
2019-03-03T07:25:36.577Z,8.10
2019-03-03T07:28:08.021Z,8.20
2019-03-03T07:30:38.266Z,8.40
2019-03-03T07:33:10.082Z,8.50
2019-03-03T07:35:40.414Z,8.60
2019-03-03T07:38:10.648Z,8.70
2019-03-03T07:40:40.879Z,8.80
2019-03-03T07:43:11.105Z,8.90
2019-03-03T07:45:42.643Z,9.00
2019-03-03T07:48:12.874Z,9.10
2019-03-03T07:50:43.108Z,9.20
2019-03-03T07:53:13.365Z,9.40
2019-03-03T07:55:43.603Z,9.50
2019-03-03T07:58:13.835Z,9.60
2019-03-03T08:00:44.072Z,9.80
2019-03-03T08:03:14.364Z,10.00
2019-03-03T08:05:44.646Z,10.10
2019-03-03T08:08:15.308Z,10.20
2019-03-03T08:10:45.507Z,10.40
2019-03-03T08:13:15.872Z,10.50
2019-03-03T08:15:46.092Z,10.70
2019-03-03T08:18:16.473Z,10.90
2019-03-03T08:20:46.770Z,10.90
2019-03-03T08:23:17.146Z,11.00
2019-03-03T08:25:48.665Z,11.10
2019-03-03T08:28:18.903Z,11.30
2019-03-03T08:30:49.226Z,11.40
2019-03-03T08:33:19.467Z,11.50
2019-03-03T08:35:49.674Z,11.70
2019-03-03T08:38:19.938Z,11.70
2019-03-03T08:40:50.139Z,11.70
2019-03-03T08:43:33.599Z,11.70
2019-03-03T08:46:05.382Z,11.70
2019-03-03T08:48:41.526Z,11.80
2019-03-03T08:51:14.494Z,11.80
2019-03-03T08:53:48.777Z,11.80
2019-03-03T08:56:20.549Z,11.90
2019-03-03T08:58:58.366Z,12.10
2019-03-03T09:01:30.125Z,12.30
2019-03-03T09:04:11.204Z,12.30
2019-03-03T09:06:58.244Z,12.20
2019-03-03T09:09:32.549Z,12.20
2019-03-03T09:12:20.580Z,12.30
2019-03-03T09:15:08.638Z,12.50
2019-03-03T09:17:49.310Z,12.70
2019-03-03T09:20:27.158Z,12.80
2019-03-03T09:22:59.053Z,13.00
2019-03-03T09:25:33.863Z,13.00
2019-03-03T09:28:23.757Z,13.10
2019-03-03T09:30:55.628Z,13.20
2019-03-03T09:33:45.712Z,13.20
2019-03-03T09:36:20.250Z,13.30
2019-03-03T09:39:07.127Z,13.40
2019-03-03T09:41:46.288Z,13.40
2019-03-03T09:44:18.073Z,13.40
2019-03-03T09:46:49.923Z,13.30
2019-03-03T09:49:30.939Z,13.30
2019-03-03T09:52:19.277Z,13.30
2019-03-03T09:55:07.426Z,13.30
2019-03-03T09:57:48.446Z,13.30
2019-03-03T10:00:29.469Z,13.30
2019-03-03T10:03:01.275Z,13.30
2019-03-03T10:05:36.175Z,13.50
2019-03-03T10:08:11.085Z,13.50
2019-03-03T10:10:42.843Z,13.70
2019-03-03T10:13:14.680Z,13.80
2019-03-03T10:15:58.483Z,13.90
2019-03-03T10:18:33.092Z,14.10
2019-03-03T10:21:16.617Z,14.20
2019-03-03T10:24:00.329Z,14.30
2019-03-03T10:26:48.542Z,14.50
2019-03-03T10:29:20.361Z,14.60
2019-03-03T10:32:07.066Z,14.60
2019-03-03T10:34:47.738Z,14.50
2019-03-03T10:37:22.760Z,14.30
2019-03-03T10:39:54.570Z,14.30
2019-03-03T10:42:29.064Z,14.30
2019-03-03T10:45:17.133Z,14.30
2019-03-03T10:47:57.848Z,14.40
2019-03-03T10:50:38.952Z,14.50
2019-03-03T10:53:13.486Z,14.70
2019-03-03T10:55:51.509Z,14.60
2019-03-03T10:58:32.296Z,14.70
2019-03-03T11:01:22.155Z,14.60
2019-03-03T11:04:02.717Z,14.60
2019-03-03T11:06:37.447Z,14.60
2019-03-03T11:09:27.148Z,14.80
2019-03-03T11:12:17.444Z,14.80
2019-03-03T11:14:49.274Z,14.80
2019-03-03T11:17:24.201Z,14.90
2019-03-03T11:19:59.004Z,14.90
2019-03-03T11:22:37.838Z,14.90
2019-03-03T11:25:10.971Z,15.10
2019-03-03T11:27:42.787Z,15.10
2019-03-03T11:30:23.375Z,15.00
2019-03-03T11:32:59.301Z,15.20
2019-03-03T11:35:31.051Z,15.30
2019-03-03T11:38:08.491Z,15.30
2019-03-03T11:40:56.539Z,15.20
2019-03-03T11:43:37.155Z,15.30
2019-03-03T11:46:11.668Z,15.40
2019-03-03T11:48:43.571Z,15.40
2019-03-03T11:51:31.862Z,15.40
2019-03-03T11:54:09.715Z,15.50
2019-03-03T11:56:44.459Z,15.60
2019-03-03T11:59:16.280Z,15.70
2019-03-03T12:01:54.042Z,15.60
2019-03-03T12:04:25.854Z,15.60
2019-03-03T12:07:09.581Z,15.60
2019-03-03T12:09:41.392Z,15.70
2019-03-03T12:12:13.154Z,15.70
2019-03-03T12:14:47.815Z,15.70
2019-03-03T12:17:35.801Z,15.60
2019-03-03T12:20:24.912Z,15.60
2019-03-03T12:23:08.663Z,15.70
2019-03-03T12:25:58.875Z,15.80
2019-03-03T12:28:30.624Z,15.90
2019-03-03T12:31:02.389Z,15.90
2019-03-03T12:33:34.212Z,16.00
2019-03-03T12:36:20.936Z,16.10
2019-03-03T12:38:55.488Z,16.10
2019-03-03T12:41:42.357Z,16.10
2019-03-03T12:44:14.174Z,16.10
2019-03-03T12:46:58.129Z,16.10
2019-03-03T12:49:47.604Z,16.20
2019-03-03T12:52:35.583Z,16.40
2019-03-03T12:55:09.699Z,16.30
2019-03-03T12:57:41.477Z,16.30
2019-03-03T13:00:19.639Z,16.30
2019-03-03T13:02:51.626Z,16.30
2019-03-03T13:05:38.770Z,16.30
2019-03-03T13:08:10.528Z,16.30
2019-03-03T13:10:48.586Z,16.60
2019-03-03T13:13:23.462Z,16.60
2019-03-03T13:16:11.922Z,16.50
2019-03-03T13:18:43.676Z,16.40
2019-03-03T13:21:21.493Z,16.40
2019-03-03T13:24:09.657Z,16.30
2019-03-03T13:26:41.485Z,16.50
2019-03-03T13:29:13.258Z,16.50
2019-03-03T13:31:54.208Z,16.40
2019-03-03T13:34:28.797Z,16.50
2019-03-03T13:37:06.367Z,16.50
2019-03-03T13:39:38.120Z,16.60
2019-03-03T13:42:12.689Z,16.70
2019-03-03T13:44:42.877Z,16.60
2019-03-03T13:47:13.121Z,16.60
2019-03-03T13:49:43.288Z,16.60
2019-03-03T13:52:13.527Z,16.70
2019-03-03T13:54:43.714Z,16.80
2019-03-03T13:57:13.966Z,16.90
2019-03-03T13:59:44.175Z,16.90
2019-03-03T14:02:14.525Z,16.90
2019-03-03T14:04:44.736Z,16.90
2019-03-03T14:07:15.017Z,16.90
2019-03-03T14:09:45.204Z,17.00
2019-03-03T14:12:15.461Z,17.00
2019-03-03T14:14:45.657Z,16.80
2019-03-03T14:17:15.905Z,16.80
2019-03-03T14:19:46.104Z,16.90
2019-03-03T14:22:16.355Z,17.00
2019-03-03T14:24:46.707Z,17.00
2019-03-03T14:27:17.018Z,17.10
2019-03-03T14:29:47.255Z,17.10
2019-03-03T14:32:17.511Z,17.10
2019-03-03T14:34:47.801Z,17.00
2019-03-03T14:37:18.079Z,17.10
2019-03-03T14:39:48.335Z,17.20
2019-03-03T14:42:18.579Z,17.20
2019-03-03T14:44:48.830Z,17.20
2019-03-03T14:47:20.167Z,17.20
2019-03-03T14:49:50.404Z,17.20
2019-03-03T14:52:20.663Z,17.30
2019-03-03T14:54:50.908Z,17.20
2019-03-03T14:57:21.207Z,17.20
2019-03-03T14:59:51.444Z,17.40
2019-03-03T15:02:21.753Z,17.60
2019-03-03T15:04:52.004Z,17.60
2019-03-03T15:07:22.258Z,17.60
2019-03-03T15:10:04.450Z,17.50
2019-03-03T15:12:34.703Z,17.50
2019-03-03T15:15:07.683Z,17.50
2019-03-03T15:17:38.941Z,17.40
2019-03-03T15:20:09.190Z,17.40
2019-03-03T15:22:39.468Z,17.30
2019-03-03T15:25:11.644Z,17.30
2019-03-03T15:27:41.906Z,17.30
2019-03-03T15:30:18.835Z,17.20
2019-03-03T15:32:49.190Z,17.10
2019-03-03T15:35:19.450Z,16.90
2019-03-03T15:37:49.734Z,16.80
2019-03-03T15:40:22.528Z,16.60
2019-03-03T15:42:53.150Z,16.40
2019-03-03T15:45:29.969Z,16.50
2019-03-03T15:48:00.197Z,16.40
2019-03-03T15:50:30.464Z,16.40
2019-03-03T15:53:00.735Z,16.40
2019-03-03T15:55:32.375Z,16.40
2019-03-03T15:58:02.635Z,16.30
2019-03-03T16:00:35.121Z,16.30
2019-03-03T16:03:05.530Z,16.20
2019-03-03T16:05:36.717Z,16.20
2019-03-03T16:08:07.120Z,16.00
2019-03-03T16:10:37.593Z,15.90
2019-03-03T16:13:07.991Z,15.80
2019-03-03T16:15:38.679Z,15.70
2019-03-03T16:18:09.293Z,15.50
2019-03-03T16:20:40.039Z,15.40
2019-03-03T16:23:10.778Z,15.20
2019-03-03T16:25:41.575Z,15.00
2019-03-03T16:28:12.188Z,14.90
2019-03-03T16:30:42.900Z,14.70
2019-03-03T16:33:19.996Z,14.50
2019-03-03T16:35:48.033Z,14.40
2019-03-03T16:38:18.495Z,14.20
2019-03-03T16:40:49.229Z,14.10
2019-03-03T16:43:19.851Z,14.20
2019-03-03T16:45:50.569Z,14.10
2019-03-03T16:48:21.209Z,14.00
2019-03-03T16:50:51.929Z,14.00
2019-03-03T16:53:22.646Z,14.00
2019-03-03T16:55:53.414Z,13.90
2019-03-03T16:58:24.009Z,13.60
2019-03-03T17:00:54.733Z,13.40
2019-03-03T17:03:25.358Z,13.10
2019-03-03T17:05:56.115Z,13.00
2019-03-03T17:08:26.747Z,12.70
2019-03-03T17:10:57.517Z,12.50
2019-03-03T17:13:28.177Z,12.40
2019-03-03T17:15:58.912Z,12.30
2019-03-03T17:18:29.515Z,12.20
2019-03-03T17:21:00.222Z,12.10
2019-03-03T17:23:30.959Z,12.00
2019-03-03T17:26:01.675Z,12.00
2019-03-03T17:28:32.305Z,12.20
2019-03-03T17:31:03.026Z,12.20
2019-03-03T17:33:33.667Z,12.00
2019-03-03T17:36:04.367Z,11.70
2019-03-03T17:38:36.076Z,11.50
2019-03-03T17:41:06.851Z,11.60
2019-03-03T17:43:37.672Z,12.00
2019-03-03T17:46:08.381Z,12.00
2019-03-03T17:48:39.015Z,11.90
2019-03-03T17:51:09.745Z,11.60
2019-03-03T17:53:40.434Z,11.30
2019-03-03T17:56:11.436Z,11.10
2019-03-03T17:58:42.063Z,11.00
2019-03-03T18:01:12.836Z,11.30
2019-03-03T18:03:43.588Z,11.50
2019-03-03T18:06:14.283Z,11.40
2019-03-03T18:08:44.905Z,11.50
2019-03-03T18:11:15.519Z,11.80
2019-03-03T18:13:46.295Z,11.60
2019-03-03T18:16:17.183Z,11.80
2019-03-03T18:18:47.910Z,11.70
2019-03-03T18:21:20.046Z,11.80
2019-03-03T18:23:51.661Z,11.70
2019-03-03T18:26:22.356Z,11.50
2019-03-03T18:28:52.963Z,11.40
2019-03-03T18:31:23.582Z,11.00
2019-03-03T18:33:53.966Z,10.80
2019-03-03T18:36:24.573Z,11.10
2019-03-03T18:38:55.022Z,11.20
2019-03-03T18:41:25.682Z,11.50
2019-03-03T18:43:56.080Z,11.80
2019-03-03T18:46:26.470Z,11.80
2019-03-03T18:48:56.884Z,11.80
2019-03-03T18:51:27.273Z,11.90
2019-03-03T18:53:57.611Z,11.80
2019-03-03T18:56:27.887Z,11.70
2019-03-03T18:58:58.078Z,11.70
2019-03-03T19:01:28.329Z,11.80
2019-03-03T19:03:58.846Z,11.90
2019-03-03T19:06:29.489Z,11.90
2019-03-03T19:09:00.028Z,11.80
2019-03-03T19:11:30.613Z,11.80
2019-03-03T19:14:00.861Z,11.70
2019-03-03T19:16:31.221Z,11.40
2019-03-03T19:19:01.516Z,11.10
2019-03-03T19:21:31.840Z,10.90
2019-03-03T19:24:02.231Z,11.00
2019-03-03T19:26:32.532Z,11.20
2019-03-03T19:29:02.886Z,11.30
2019-03-03T19:31:33.506Z,11.30
2019-03-03T19:34:04.134Z,10.90
2019-03-03T19:36:36.537Z,10.60
2019-03-03T19:39:07.051Z,10.50
2019-03-03T19:41:39.090Z,10.60
2019-03-03T19:44:11.247Z,10.80
2019-03-03T19:46:41.841Z,11.10
2019-03-03T19:49:12.611Z,11.30
2019-03-03T19:51:43.197Z,11.60
2019-03-03T19:54:13.945Z,11.90
2019-03-03T19:56:44.678Z,11.90
2019-03-03T19:59:15.006Z,11.90
2019-03-03T20:01:45.683Z,12.00
2019-03-03T20:04:16.172Z,12.10
2019-03-03T20:06:46.816Z,12.10
2019-03-03T20:09:18.249Z,12.20
2019-03-03T20:11:48.939Z,12.10
2019-03-03T20:14:20.816Z,12.00
2019-03-03T20:16:51.247Z,12.00
2019-03-03T20:19:21.503Z,12.00
2019-03-03T20:21:51.769Z,11.60
2019-03-03T20:24:22.032Z,11.60
2019-03-03T20:26:52.413Z,11.60
2019-03-03T20:29:22.616Z,11.70
2019-03-03T20:31:52.983Z,11.70
2019-03-03T20:34:23.179Z,11.60
2019-03-03T20:36:53.543Z,11.50
2019-03-03T20:39:23.716Z,11.50
2019-03-03T20:41:53.981Z,11.50
2019-03-03T20:44:24.382Z,11.60
2019-03-03T20:46:54.647Z,11.60
2019-03-03T20:49:24.911Z,11.30
2019-03-03T20:51:55.192Z,10.90
2019-03-03T20:54:25.455Z,10.80
2019-03-03T20:56:55.785Z,10.90
2019-03-03T20:59:26.020Z,11.10
2019-03-03T21:01:56.313Z,11.20
2019-03-03T21:04:26.677Z,11.30
2019-03-03T21:06:56.914Z,11.30
2019-03-03T21:09:27.168Z,11.20
2019-03-03T21:11:57.427Z,11.20
2019-03-03T21:14:27.664Z,11.00
2019-03-03T21:16:57.925Z,11.10
2019-03-03T21:19:28.159Z,11.20
2019-03-03T21:21:58.379Z,11.10
2019-03-03T21:24:28.601Z,11.00
2019-03-03T21:26:58.847Z,11.00
2019-03-03T21:29:30.218Z,10.90
2019-03-03T21:32:00.451Z,10.80
2019-03-03T21:34:30.611Z,10.70
2019-03-03T21:37:00.848Z,10.70
2019-03-03T21:39:31.025Z,10.60
2019-03-03T21:42:01.273Z,10.60
2019-03-03T21:44:31.464Z,10.60
2019-03-03T21:47:02.806Z,10.70
2019-03-03T21:49:34.183Z,10.60
2019-03-03T21:52:04.426Z,10.60
2019-03-03T21:54:34.605Z,10.60
2019-03-03T21:57:04.961Z,10.60
2019-03-03T21:59:35.132Z,10.40
2019-03-03T22:02:05.378Z,10.10
2019-03-03T22:04:35.648Z,10.10
2019-03-03T22:07:05.883Z,10.20
2019-03-03T22:09:36.072Z,10.30
2019-03-03T22:12:06.324Z,10.30
2019-03-03T22:14:36.506Z,10.20
2019-03-03T22:17:06.742Z,10.20
2019-03-03T22:19:36.916Z,10.30
2019-03-03T22:22:07.159Z,10.30
2019-03-03T22:24:37.336Z,10.20
2019-03-03T22:27:07.577Z,9.90
2019-03-03T22:29:37.862Z,10.00
2019-03-03T22:32:09.214Z,10.10
2019-03-03T22:34:39.400Z,10.20
2019-03-03T22:37:09.643Z,10.30
2019-03-03T22:39:39.824Z,10.30
2019-03-03T22:42:10.076Z,10.30
2019-03-03T22:44:40.252Z,10.00
2019-03-03T22:47:10.483Z,9.80
2019-03-03T22:49:40.665Z,9.60
2019-03-03T22:52:10.904Z,9.50
2019-03-03T22:54:41.075Z,9.60
2019-03-03T22:57:11.312Z,9.80
2019-03-03T22:59:41.470Z,9.60
2019-03-03T23:02:12.479Z,9.30
2019-03-03T23:04:51.514Z,9.00
2019-03-03T23:07:43.702Z,8.90
2019-03-03T23:10:39.676Z,9.00
2019-03-03T23:13:25.275Z,9.20
2019-03-03T23:16:13.382Z,9.20
2019-03-03T23:19:02.045Z,9.10
2019-03-03T23:21:35.333Z,8.90
2019-03-03T23:24:20.529Z,8.70
2019-03-03T23:26:50.687Z,8.70
2019-03-03T23:29:20.939Z,8.60
2019-03-03T23:31:51.116Z,8.70
2019-03-03T23:34:21.377Z,8.80
2019-03-03T23:36:52.843Z,8.70
2019-03-03T23:39:23.072Z,8.60
2019-03-03T23:41:53.232Z,8.50
2019-03-03T23:44:23.474Z,8.50
2019-03-03T23:46:53.642Z,8.40
2019-03-03T23:49:23.872Z,8.40
2019-03-03T23:51:54.027Z,8.30
2019-03-03T23:54:24.280Z,8.20
2019-03-03T23:56:54.453Z,8.10
2019-03-03T23:59:24.672Z,8.10
